Time;durP1;ratioP1;P1;durP2;ratioP2;P2;SDS_P1;SDS_P2;PMS_P1;PMS_P2;Temp;Humidity;BMP_temperature;BMP_pressure;BME280_temperature;BME280_humidity;BME280_pressure;Samples;Min_cycle;Max_cycle;Signal;HPM_P1;HPM_P2
2021/01/26 00:02:12;;;;;;;0.30;0.30;;;0.80;99.90;;;;;;4993726;28;20454;-72
2021/01/26 00:04:38;;;;;;;0.40;0.40;;;0.80;99.90;;;;;;4993913;28;20180;-72
2021/01/26 00:07:05;;;;;;;0.30;0.30;;;0.90;99.90;;;;;;4993171;28;20229;-72
2021/01/26 00:09:30;;;;;;;0.30;0.30;;;0.90;99.90;;;;;;4993454;28;20171;-72
2021/01/26 00:11:56;;;;;;;0.40;0.40;;;0.90;99.90;;;;;;4993831;28;20164;-72
2021/01/26 00:14:22;;;;;;;0.77;0.77;;;0.90;99.90;;;;;;4993952;28;20175;-72
2021/01/26 00:16:47;;;;;;;0.40;0.40;;;0.90;99.90;;;;;;4992932;28;20274;-72
2021/01/26 00:19:13;;;;;;;0.30;0.30;;;0.80;99.90;;;;;;4996261;28;20205;-72
2021/01/26 00:21:39;;;;;;;0.37;0.37;;;0.80;99.90;;;;;;4998348;28;20411;-71
2021/01/26 00:24:05;;;;;;;0.30;0.30;;;0.80;99.90;;;;;;4997772;28;20235;-71
2021/01/26 00:26:31;;;;;;;0.40;0.40;;;0.80;99.90;;;;;;4997461;28;20964;-71
2021/01/26 00:28:57;;;;;;;0.30;0.30;;;0.80;99.90;;;;;;4997275;28;20233;-73
2021/01/26 00:31:22;;;;;;;0.30;0.30;;;0.80;99.90;;;;;;4997594;28;20427;-71
2021/01/26 00:33:48;;;;;;;0.40;0.40;;;0.70;99.90;;;;;;4997694;28;20172;-72
2021/01/26 00:36:14;;;;;;;0.30;0.30;;;0.70;99.90;;;;;;4997071;28;20195;-71
2021/01/26 00:38:39;;;;;;;0.30;0.30;;;0.70;99.90;;;;;;4997563;28;20183;-70
2021/01/26 00:41:05;;;;;;;0.30;0.30;;;0.70;99.90;;;;;;4997291;28;20182;-72
2021/01/26 00:43:30;;;;;;;0.30;0.30;;;0.70;99.90;;;;;;4997716;28;20259;-70
2021/01/26 00:45:56;;;;;;;0.33;0.33;;;0.70;99.90;;;;;;4996897;28;20855;-72
2021/01/26 00:48:22;;;;;;;0.30;0.30;;;0.70;99.90;;;;;;4996970;28;20207;-72
2021/01/26 00:50:47;;;;;;;0.40;0.40;;;0.70;99.90;;;;;;4997232;28;20688;-72
2021/01/26 00:53:14;;;;;;;0.30;0.30;;;0.70;99.90;;;;;;4997628;28;20489;-72
2021/01/26 00:55:40;;;;;;;0.68;0.68;;;0.70;99.90;;;;;;4996691;28;20624;-72
2021/01/26 00:58:06;;;;;;;0.30;0.30;;;0.70;99.90;;;;;;4997042;28;20211;-71
2021/01/26 01:00:38;;;;;;;0.30;0.30;;;0.80;99.90;;;;;;4997255;28;20529;-71
2021/01/26 01:03:05;;;;;;;1.30;1.17;;;0.80;99.90;;;;;;4979724;28;20176;-71
2021/01/26 01:05:30;;;;;;;0.30;0.30;;;0.80;99.90;;;;;;4996500;28;20298;-71
2021/01/26 01:07:56;;;;;;;0.30;0.30;;;0.80;99.90;;;;;;4997040;28;20664;-71
2021/01/26 01:10:25;;;;;;;0.40;0.40;;;0.80;99.90;;;;;;4979791;28;20181;-71
2021/01/26 01:12:51;;;;;;;0.30;0.30;;;0.80;99.90;;;;;;4996310;28;20190;-71
2021/01/26 01:15:18;;;;;;;1.43;1.37;;;0.80;99.90;;;;;;4996788;28;20164;-71
2021/01/26 01:17:44;;;;;;;0.40;0.40;;;0.70;99.90;;;;;;4996321;28;20213;-71
2021/01/26 01:20:13;;;;;;;1.30;1.10;;;0.70;99.90;;;;;;4997283;28;20175;-71
2021/01/26 01:22:41;;;;;;;0.55;0.55;;;0.70;99.90;;;;;;4996601;28;20183;-72
2021/01/26 01:25:07;;;;;;;0.40;0.40;;;0.60;99.90;;;;;;4996468;28;20172;-73
2021/01/26 01:27:33;;;;;;;1.35;1.25;;;0.70;99.90;;;;;;4996860;28;20205;-72
2021/01/26 01:29:59;;;;;;;0.50;0.50;;;0.70;99.90;;;;;;4996315;28;20222;-72
2021/01/26 01:32:27;;;;;;;0.50;0.50;;;0.70;99.90;;;;;;4996565;28;20419;-72
2021/01/26 01:34:53;;;;;;;0.30;0.30;;;0.80;99.90;;;;;;4995997;28;20537;-71
2021/01/26 01:37:19;;;;;;;0.40;0.40;;;0.80;99.90;;;;;;4996168;28;20204;-72
2021/01/26 01:39:44;;;;;;;0.60;0.60;;;0.90;99.90;;;;;;4996656;28;20172;-72
2021/01/26 01:42:11;;;;;;;0.30;0.30;;;0.90;99.90;;;;;;4996602;28;20523;-72
2021/01/26 01:44:37;;;;;;;0.30;0.30;;;1.00;99.90;;;;;;4996321;28;20603;-71
2021/01/26 01:47:06;;;;;;;0.30;0.30;;;1.00;99.90;;;;;;4978309;28;20307;-72
2021/01/26 01:49:38;;;;;;;0.40;0.40;;;1.10;99.90;;;;;;4979470;28;20261;-72
2021/01/26 01:52:05;;;;;;;0.45;0.45;;;1.10;99.90;;;;;;4995974;28;20178;-72
2021/01/26 01:54:39;;;;;;;0.40;0.40;;;1.10;99.90;;;;;;4995814;28;20172;-71
2021/01/26 01:57:22;;;;;;;0.40;0.40;;;1.10;99.90;;;;;;4995963;28;20215;-72
2021/01/26 01:59:55;;;;;;;0.30;0.30;;;1.20;99.90;;;;;;4995716;28;20253;-73
2021/01/26 02:02:21;;;;;;;0.40;0.40;;;1.20;99.90;;;;;;4996392;28;20191;-72
2021/01/26 02:04:47;;;;;;;1.30;1.20;;;1.30;99.90;;;;;;4978108;28;20208;-72
2021/01/26 02:07:13;;;;;;;0.47;0.47;;;1.20;99.90;;;;;;4978123;28;20235;-71
2021/01/26 02:09:41;;;;;;;0.30;0.30;;;1.30;99.90;;;;;;4995338;28;20182;-73
2021/01/26 02:12:11;;;;;;;0.30;0.30;;;1.20;99.90;;;;;;4996174;28;20190;-71
2021/01/26 02:14:49;;;;;;;0.50;0.50;;;1.30;99.90;;;;;;4995857;28;20188;-72
2021/01/26 02:17:49;;;;;;;0.38;0.38;;;1.30;99.90;;;;;;4995717;28;20191;-73
2021/01/26 02:20:36;;;;;;;0.30;0.30;;;1.30;99.90;;;;;;4995363;28;20180;-72
2021/01/26 02:23:22;;;;;;;0.40;0.40;;;1.30;99.90;;;;;;4995584;28;20183;-71
2021/01/26 02:26:24;;;;;;;0.35;0.35;;;1.30;99.90;;;;;;4995367;28;20187;-71
2021/01/26 02:29:02;;;;;;;0.30;0.30;;;1.30;99.90;;;;;;4977563;28;20211;-73
2021/01/26 02:31:55;;;;;;;1.20;1.20;;;1.30;99.90;;;;;;4986366;28;20533;-70
2021/01/26 02:35:01;;;;;;;0.30;0.30;;;1.20;99.90;;;;;;4995769;28;20557;-71
2021/01/26 02:37:58;;;;;;;0.47;0.47;;;1.20;99.90;;;;;;4995014;28;20218;-72
2021/01/26 02:40:27;;;;;;;0.38;0.38;;;1.20;99.90;;;;;;4987035;28;20184;-73
2021/01/26 02:43:30;;;;;;;0.30;0.30;;;1.20;99.90;;;;;;4995113;28;20172;-71
2021/01/26 02:46:28;;;;;;;0.30;0.30;;;1.20;99.90;;;;;;4994289;28;20210;-72
2021/01/26 02:49:15;;;;;;;0.32;0.32;;;1.20;99.90;;;;;;4995428;28;20175;-72
2021/01/26 02:52:18;;;;;;;0.30;0.30;;;1.10;99.90;;;;;;4995112;28;20214;-72
2021/01/26 02:55:06;;;;;;;0.30;0.30;;;1.10;99.90;;;;;;4994994;28;20561;-71
2021/01/26 02:57:52;;;;;;;0.30;0.30;;;1.00;99.90;;;;;;4994615;28;20570;-71
2021/01/26 03:00:23;;;;;;;0.30;0.30;;;1.10;99.90;;;;;;4995495;28;20195;-71
2021/01/26 03:03:14;;;;;;;0.30;0.30;;;1.10;99.90;;;;;;4995063;28;20209;-70
2021/01/26 03:05:57;;;;;;;0.30;0.30;;;1.20;99.90;;;;;;4994355;28;20258;-71
2021/01/26 03:08:57;;;;;;;1.30;1.20;;;1.20;99.90;;;;;;4975486;28;20535;-71
2021/01/26 03:11:48;;;;;;;0.40;0.40;;;1.20;99.90;;;;;;4961968;28;20649;-71
2021/01/26 03:14:29;;;;;;;0.40;0.40;;;1.30;99.90;;;;;;4995046;28;20166;-69
2021/01/26 03:17:17;;;;;;;0.30;0.30;;;1.30;99.90;;;;;;4993887;28;20241;-70
2021/01/26 03:19:49;;;;;;;0.30;0.30;;;1.30;99.90;;;;;;4995017;28;20185;-69
2021/01/26 03:22:19;;;;;;;0.63;0.63;;;1.30;99.90;;;;;;4994297;28;20175;-70
2021/01/26 03:24:45;;;;;;;0.30;0.30;;;1.30;99.90;;;;;;4994209;28;20181;-70
2021/01/26 03:27:16;;;;;;;0.30;0.30;;;1.20;99.90;;;;;;4994210;28;20736;-70
2021/01/26 03:29:46;;;;;;;0.30;0.30;;;1.30;99.90;;;;;;4994675;28;20175;-70
2021/01/26 03:32:17;;;;;;;0.30;0.30;;;1.20;99.90;;;;;;4994224;28;20194;-70
2021/01/26 03:34:44;;;;;;;0.40;0.40;;;1.10;99.90;;;;;;4993804;28;20264;-69
2021/01/26 03:37:11;;;;;;;0.30;0.30;;;1.10;99.90;;;;;;4994075;28;20617;-72
2021/01/26 03:39:36;;;;;;;0.30;0.30;;;1.10;99.90;;;;;;4976952;28;20415;-70
2021/01/26 03:42:04;;;;;;;0.40;0.40;;;1.10;99.90;;;;;;4994231;28;20190;-72
2021/01/26 03:44:30;;;;;;;0.30;0.30;;;1.00;99.90;;;;;;4994026;28;20181;-71
2021/01/26 03:47:05;;;;;;;0.30;0.30;;;1.00;99.90;;;;;;4993475;28;20203;-70
2021/01/26 03:49:59;;;;;;;0.30;0.30;;;1.00;99.90;;;;;;4993830;28;20461;-70
2021/01/26 03:52:52;;;;;;;0.30;0.30;;;1.00;99.90;;;;;;4993893;28;20167;-72
2021/01/26 03:55:43;;;;;;;0.30;0.30;;;1.00;99.90;;;;;;4974192;28;20184;-69
2021/01/26 03:58:29;;;;;;;0.40;0.40;;;1.10;99.90;;;;;;4994110;28;20534;-71
2021/01/26 04:01:13;;;;;;;0.40;0.40;;;1.10;99.90;;;;;;4994148;28;20171;-71
2021/01/26 04:03:44;;;;;;;0.30;0.30;;;1.10;99.90;;;;;;4994039;28;20194;-71
2021/01/26 04:06:19;;;;;;;0.30;0.30;;;1.20;99.90;;;;;;4975782;28;20681;-71
2021/01/26 04:08:52;;;;;;;0.40;0.40;;;1.20;99.90;;;;;;4993782;28;20561;-71
2021/01/26 04:11:39;;;;;;;0.70;0.70;;;1.30;99.90;;;;;;4976341;28;20203;-71
2021/01/26 04:14:18;;;;;;;0.30;0.30;;;1.30;99.90;;;;;;4993859;28;20183;-71
2021/01/26 04:16:50;;;;;;;0.40;0.40;;;1.40;99.90;;;;;;4993169;28;20199;-71
2021/01/26 04:19:29;;;;;;;0.40;0.40;;;1.40;99.90;;;;;;4993874;28;20216;-70
2021/01/26 04:21:55;;;;;;;0.40;0.40;;;1.40;99.90;;;;;;4993510;28;20203;-71
2021/01/26 04:24:21;;;;;;;0.43;0.43;;;1.40;99.90;;;;;;4993614;28;20221;-69
2021/01/26 04:26:48;;;;;;;0.40;0.40;;;1.40;99.90;;;;;;4992660;28;20634;-71
2021/01/26 04:29:14;;;;;;;0.30;0.30;;;1.40;99.90;;;;;;4993543;28;20608;-71
2021/01/26 04:31:40;;;;;;;0.40;0.40;;;1.40;99.90;;;;;;4976418;28;20183;-71
2021/01/26 04:34:06;;;;;;;0.30;0.30;;;1.40;99.90;;;;;;4992889;28;20782;-71
2021/01/26 04:36:31;;;;;;;0.50;0.50;;;1.40;99.90;;;;;;4993359;28;20246;-70
2021/01/26 04:38:57;;;;;;;0.40;0.40;;;1.40;99.90;;;;;;4993781;28;20248;-70
2021/01/26 04:41:32;;;;;;;0.30;0.30;;;1.40;99.90;;;;;;4993592;28;20277;-72
2021/01/26 04:44:25;;;;;;;0.30;0.30;;;1.40;99.90;;;;;;4975893;28;20237;-71
2021/01/26 04:47:10;;;;;;;0.50;0.50;;;1.50;99.90;;;;;;4973863;28;20380;-71
2021/01/26 04:49:57;;;;;;;0.40;0.40;;;1.50;99.90;;;;;;4978501;28;20175;-70
2021/01/26 04:52:40;;;;;;;0.30;0.30;;;1.50;99.90;;;;;;4993698;28;20258;-70
2021/01/26 04:55:14;;;;;;;0.30;0.30;;;1.40;99.90;;;;;;4993139;28;20198;-71
2021/01/26 04:58:07;;;;;;;0.40;0.40;;;1.50;99.90;;;;;;4993654;28;20191;-72
2021/01/26 05:01:11;;;;;;;0.30;0.30;;;1.50;99.90;;;;;;4975773;28;20187;-70
2021/01/26 05:03:42;;;;;;;0.30;0.30;;;1.50;99.90;;;;;;4993259;28;20213;-70
2021/01/26 05:06:15;;;;;;;0.30;0.30;;;1.50;99.90;;;;;;4996491;28;20677;-71
2021/01/26 05:08:44;;;;;;;1.50;1.40;;;1.60;99.90;;;;;;4997284;28;20318;-71
2021/01/26 05:11:15;;;;;;;0.30;0.30;;;1.60;99.90;;;;;;4996766;28;20171;-73
2021/01/26 05:14:09;;;;;;;0.40;0.40;;;1.50;99.90;;;;;;4988713;28;20175;-71
2021/01/26 05:16:56;;;;;;;0.40;0.40;;;1.60;99.90;;;;;;4994166;28;20215;-70
2021/01/26 05:19:45;;;;;;;0.55;0.55;;;1.60;99.90;;;;;;4996591;28;20191;-70
2021/01/26 05:22:17;;;;;;;0.40;0.40;;;1.70;99.90;;;;;;4996956;28;20187;-69
2021/01/26 05:24:46;;;;;;;0.30;0.30;;;1.70;99.90;;;;;;4996051;28;20171;-71
2021/01/26 05:27:12;;;;;;;0.30;0.30;;;1.70;99.90;;;;;;4996807;28;20263;-69
2021/01/26 05:29:38;;;;;;;0.50;0.50;;;1.70;99.90;;;;;;4996934;28;20716;-70
2021/01/26 05:32:06;;;;;;;0.40;0.40;;;1.70;99.90;;;;;;4996779;28;20282;-70
2021/01/26 05:34:34;;;;;;;0.30;0.30;;;1.70;99.90;;;;;;4996167;28;20179;-70
2021/01/26 05:37:00;;;;;;;0.40;0.40;;;1.80;99.90;;;;;;4996345;28;20614;-70
2021/01/26 05:39:32;;;;;;;0.40;0.40;;;1.80;99.90;;;;;;4996362;28;20190;-71
2021/01/26 05:41:58;;;;;;;0.40;0.40;;;1.80;99.90;;;;;;4996367;28;20175;-70
2021/01/26 05:44:24;;;;;;;0.30;0.30;;;1.80;99.90;;;;;;4995806;28;20175;-70
2021/01/26 05:46:50;;;;;;;0.30;0.30;;;1.80;99.90;;;;;;4996006;28;20703;-69
2021/01/26 05:49:36;;;;;;;0.40;0.40;;;1.80;99.90;;;;;;4996083;28;20438;-70
2021/01/26 05:52:04;;;;;;;0.40;0.40;;;1.90;99.90;;;;;;4996535;28;20842;-71
2021/01/26 05:54:33;;;;;;;0.30;0.30;;;1.90;99.90;;;;;;4977921;28;20179;-71
2021/01/26 05:57:00;;;;;;;0.30;0.30;;;1.90;99.90;;;;;;4995723;28;20191;-70
2021/01/26 05:59:35;;;;;;;0.50;0.50;;;1.90;99.90;;;;;;4996019;28;20262;-70
2021/01/26 06:02:21;;;;;;;0.30;0.30;;;1.90;99.90;;;;;;4979109;28;20190;-70
2021/01/26 06:04:47;;;;;;;0.30;0.30;;;1.90;99.90;;;;;;4995371;28;20179;-70
2021/01/26 06:07:22;;;;;;;0.30;0.20;;;1.90;99.90;;;;;;4995939;28;20265;-71
2021/01/26 06:09:49;;;;;;;0.30;0.30;;;2.00;99.90;;;;;;4995844;28;21668;-70
2021/01/26 06:12:22;;;;;;;0.30;0.30;;;2.00;99.90;;;;;;4995772;28;20179;-70
2021/01/26 06:14:57;;;;;;;0.40;0.40;;;2.00;99.90;;;;;;4994343;28;20234;-71
2021/01/26 06:17:27;;;;;;;0.38;0.38;;;2.00;99.90;;;;;;4994954;28;20203;-69
2021/01/26 06:20:14;;;;;;;0.30;0.30;;;2.00;99.90;;;;;;4996025;28;20211;-70
2021/01/26 06:22:40;;;;;;;0.30;0.30;;;2.10;99.90;;;;;;4995395;28;20541;-70
2021/01/26 06:25:17;;;;;;;1.07;1.07;;;2.10;99.90;;;;;;4995290;28;20258;-70
2021/01/26 06:28:19;;;;;;;0.30;0.30;;;2.10;99.90;;;;;;4995738;28;20713;-71
2021/01/26 06:31:09;;;;;;;0.30;0.30;;;2.00;99.90;;;;;;4995273;28;20269;-71
2021/01/26 06:33:44;;;;;;;0.40;0.40;;;2.10;99.90;;;;;;4997501;28;20246;-70
2021/01/26 06:36:28;;;;;;;0.40;0.40;;;2.10;99.90;;;;;;4998068;28;20193;-70
2021/01/26 06:39:25;;;;;;;0.30;0.30;;;2.00;99.90;;;;;;5009066;28;20179;-71
2021/01/26 06:42:11;;;;;;;0.30;0.30;;;2.10;99.90;;;;;;4976020;28;20207;-71
2021/01/26 06:44:43;;;;;;;0.50;0.50;;;2.10;99.90;;;;;;4985173;28;20581;-72
2021/01/26 06:47:34;;;;;;;0.30;0.30;;;2.10;99.90;;;;;;4993806;28;20661;-71
2021/01/26 06:50:45;;;;;;;0.40;0.40;;;2.10;99.90;;;;;;4961064;28;20231;-72
2021/01/26 06:53:44;;;;;;;0.30;0.30;;;2.10;99.90;;;;;;4993319;28;20187;-69
2021/01/26 06:56:21;;;;;;;0.40;0.40;;;2.10;99.90;;;;;;4993879;28;20226;-71
2021/01/26 06:59:19;;;;;;;0.40;0.40;;;2.10;99.90;;;;;;4994448;28;20246;-70
2021/01/26 07:01:57;;;;;;;0.30;0.30;;;2.10;99.90;;;;;;4994724;28;20168;-70
2021/01/26 07:04:55;;;;;;;0.30;0.30;;;2.00;99.90;;;;;;4995102;28;20613;-71
2021/01/26 07:07:30;;;;;;;0.30;0.30;;;2.00;99.90;;;;;;4994128;28;20223;-68
2021/01/26 07:10:13;;;;;;;0.30;0.30;;;2.10;99.90;;;;;;4994408;28;20175;-70
2021/01/26 07:13:03;;;;;;;0.30;0.30;;;2.00;99.90;;;;;;4994544;28;20183;-69
2021/01/26 07:15:54;;;;;;;0.30;0.30;;;2.00;99.90;;;;;;4994488;28;20194;-70
2021/01/26 07:18:38;;;;;;;0.38;0.38;;;2.00;99.90;;;;;;4984101;28;20195;-72
2021/01/26 07:21:12;;;;;;;0.30;0.30;;;2.00;99.90;;;;;;4994534;28;20175;-70
2021/01/26 07:23:49;;;;;;;0.30;0.30;;;2.00;99.90;;;;;;4994865;28;20250;-72
2021/01/26 07:26:43;;;;;;;0.30;0.30;;;2.00;99.90;;;;;;4993609;28;20285;-72
2021/01/26 07:29:34;;;;;;;0.30;0.30;;;2.00;99.90;;;;;;4993836;28;20264;-70
2021/01/26 07:32:20;;;;;;;0.30;0.30;;;2.00;99.90;;;;;;4994327;28;20186;-72
2021/01/26 07:34:58;;;;;;;0.30;0.30;;;2.00;99.90;;;;;;4976196;28;20586;-69
2021/01/26 07:37:49;;;;;;;0.30;0.30;;;2.00;99.90;;;;;;4994200;28;20564;-71
2021/01/26 07:40:26;;;;;;;0.30;0.30;;;2.00;99.90;;;;;;4970370;28;20722;-67
2021/01/26 07:43:06;;;;;;;0.30;0.30;;;2.10;99.90;;;;;;4974623;28;20167;-71
2021/01/26 07:45:45;;;;;;;0.40;0.40;;;2.20;99.90;;;;;;4974403;28;20175;-70
2021/01/26 07:48:22;;;;;;;0.40;0.40;;;2.20;99.90;;;;;;4993278;28;20246;-69
2021/01/26 07:50:54;;;;;;;0.30;0.30;;;2.20;99.90;;;;;;4994108;28;20173;-69
2021/01/26 07:53:39;;;;;;;0.30;0.30;;;2.20;99.90;;;;;;4994111;28;20181;-69
2021/01/26 07:56:25;;;;;;;0.30;0.30;;;2.20;99.90;;;;;;4975817;28;20191;-69
2021/01/26 07:58:51;;;;;;;0.30;0.30;;;2.20;99.90;;;;;;4994029;28;20198;-70
2021/01/26 08:01:25;;;;;;;0.30;0.28;;;2.20;99.90;;;;;;4994075;28;20254;-70
2021/01/26 08:04:00;;;;;;;0.30;0.30;;;2.20;99.90;;;;;;4994027;28;20532;-69
2021/01/26 08:06:53;;;;;;;0.30;0.30;;;2.20;99.90;;;;;;4993211;28;20195;-68
2021/01/26 08:09:40;;;;;;;0.30;0.30;;;2.30;99.90;;;;;;4985646;28;20218;-70
2021/01/26 08:12:34;;;;;;;0.30;0.30;;;2.40;99.90;;;;;;4993912;28;20696;-70
2021/01/26 08:15:20;;;;;;;0.30;0.30;;;2.40;99.90;;;;;;4972600;28;20566;-70
2021/01/26 08:17:47;;;;;;;0.50;0.50;;;2.50;99.90;;;;;;4993818;28;20793;-71
2021/01/26 08:20:29;;;;;;;0.40;0.40;;;2.50;99.90;;;;;;4993986;28;20183;-69
2021/01/26 08:23:10;;;;;;;0.40;0.40;;;2.60;99.90;;;;;;4993623;28;20209;-70
2021/01/26 08:25:39;;;;;;;0.90;0.90;;;2.70;99.90;;;;;;4996122;28;20185;-69
2021/01/26 08:28:06;;;;;;;0.40;0.40;;;2.70;99.90;;;;;;5012977;28;20245;-70
2021/01/26 08:30:48;;;;;;;0.30;0.30;;;2.80;99.90;;;;;;5012427;28;20167;-68
2021/01/26 08:33:22;;;;;;;0.30;0.30;;;2.90;99.90;;;;;;4998844;28;20220;-70
2021/01/26 08:36:08;;;;;;;0.30;0.30;;;2.90;99.90;;;;;;4992986;28;20286;-69
2021/01/26 08:38:52;;;;;;;0.40;0.40;;;3.00;99.90;;;;;;4953115;28;20308;-71
2021/01/26 08:41:46;;;;;;;0.30;0.30;;;3.00;99.90;;;;;;4956922;29;20180;-69
2021/01/26 08:44:20;;;;;;;0.50;0.50;;;3.10;99.90;;;;;;4937553;29;20207;-69
2021/01/26 08:46:48;;;;;;;0.30;0.30;;;3.10;99.90;;;;;;4936650;29;20267;-70
2021/01/26 08:49:40;;;;;;;0.82;0.82;;;3.10;99.90;;;;;;4952883;29;20190;-70
2021/01/26 08:52:20;;;;;;;0.40;0.40;;;3.10;99.90;;;;;;4952286;29;20185;-70
2021/01/26 08:54:51;;;;;;;0.30;0.30;;;3.10;99.90;;;;;;4939869;29;20187;-70
2021/01/26 08:57:40;;;;;;;1.25;1.25;;;3.10;99.90;;;;;;4956234;28;20266;-69
2021/01/26 09:00:17;;;;;;;0.38;0.38;;;3.10;99.90;;;;;;4956563;29;20181;-69
2021/01/26 09:02:49;;;;;;;0.82;0.82;;;3.10;99.90;;;;;;4937250;29;20207;-70
2021/01/26 09:05:41;;;;;;;0.75;0.75;;;3.10;99.90;;;;;;4936985;29;20517;-70
2021/01/26 09:08:07;;;;;;;0.30;0.30;;;3.10;99.90;;;;;;4929643;29;20331;-70
2021/01/26 09:10:39;;;;;;;0.30;0.30;;;3.10;99.90;;;;;;4939568;29;20207;-69
2021/01/26 09:13:32;;;;;;;0.40;0.40;;;3.10;99.90;;;;;;4956309;29;20574;-70
2021/01/26 09:16:03;;;;;;;0.40;0.40;;;3.10;99.90;;;;;;4978769;28;20262;-70
2021/01/26 09:18:30;;;;;;;0.30;0.30;;;3.10;99.90;;;;;;4996878;28;20183;-70
2021/01/26 09:21:13;;;;;;;0.60;0.55;;;3.20;99.90;;;;;;4996722;28;20654;-69
2021/01/26 09:23:41;;;;;;;0.30;0.30;;;3.30;99.90;;;;;;4997063;28;20176;-70
2021/01/26 09:26:18;;;;;;;0.30;0.30;;;3.40;99.90;;;;;;4996326;28;20236;-70
2021/01/26 09:28:46;;;;;;;0.40;0.40;;;3.50;99.90;;;;;;4996911;28;20277;-70
2021/01/26 09:31:15;;;;;;;0.30;0.30;;;3.60;99.90;;;;;;4996247;28;20202;-70
2021/01/26 09:33:41;;;;;;;0.32;0.32;;;3.70;99.90;;;;;;4979250;28;20234;-70
2021/01/26 09:36:20;;;;;;;0.30;0.30;;;3.90;99.90;;;;;;4996236;28;20278;-70
2021/01/26 09:38:48;;;;;;;0.30;0.30;;;4.10;99.90;;;;;;4979046;28;20219;-70
2021/01/26 09:41:23;;;;;;;0.30;0.20;;;4.40;99.90;;;;;;4994978;28;20674;-71
2021/01/26 09:43:52;;;;;;;0.30;0.30;;;4.60;99.90;;;;;;4996756;28;20229;-71
2021/01/26 09:46:28;;;;;;;0.30;0.30;;;4.80;99.90;;;;;;4996096;28;20238;-70
2021/01/26 09:48:57;;;;;;;0.30;0.30;;;4.90;99.90;;;;;;4996547;28;20175;-72
2021/01/26 09:51:29;;;;;;;0.30;0.30;;;4.80;99.90;;;;;;4995909;28;20552;-71
2021/01/26 09:54:16;;;;;;;0.30;0.30;;;4.90;99.90;;;;;;4996236;28;20175;-71
2021/01/26 09:56:42;;;;;;;0.40;0.40;;;4.90;99.90;;;;;;4995864;28;20202;-71
2021/01/26 09:59:14;;;;;;;0.30;0.20;;;4.90;99.90;;;;;;4996240;28;20668;-71
2021/01/26 10:01:43;;;;;;;0.30;0.28;;;4.80;99.90;;;;;;4996293;28;20182;-70
2021/01/26 10:04:10;;;;;;;0.30;0.30;;;4.70;99.90;;;;;;4995784;28;20178;-71
2021/01/26 10:06:38;;;;;;;0.30;0.30;;;4.60;99.90;;;;;;4995457;28;20191;-71
2021/01/26 10:09:29;;;;;;;0.40;0.40;;;4.50;99.90;;;;;;4995647;28;20246;-69
2021/01/26 10:12:16;;;;;;;0.30;0.30;;;4.40;99.90;;;;;;4996186;28;20167;-70
2021/01/26 10:15:06;;;;;;;0.30;0.30;;;4.30;99.90;;;;;;4995579;28;20622;-72
2021/01/26 10:17:32;;;;;;;0.30;0.30;;;4.30;99.90;;;;;;4995514;28;20237;-70
2021/01/26 10:19:58;;;;;;;0.30;0.30;;;4.40;99.90;;;;;;4995773;28;20206;-70
2021/01/26 10:22:25;;;;;;;0.30;0.30;;;4.40;99.90;;;;;;4995903;28;20175;-70
2021/01/26 10:24:51;;;;;;;0.50;0.50;;;4.40;99.90;;;;;;4995453;28;20422;-70
2021/01/26 10:27:22;;;;;;;0.30;0.30;;;4.50;99.90;;;;;;4995421;28;20215;-71
2021/01/26 10:29:49;;;;;;;0.40;0.40;;;4.50;99.90;;;;;;4995279;28;20234;-72
2021/01/26 10:32:53;;;;;;;0.30;0.28;;;4.60;99.90;;;;;;4995610;28;20195;-69
2021/01/26 10:35:35;;;;;;;0.30;0.30;;;4.70;99.90;;;;;;4961695;28;20180;-70
2021/01/26 10:38:26;;;;;;;0.30;0.30;;;4.90;99.90;;;;;;4978276;28;20500;-71
2021/01/26 10:41:16;;;;;;;0.30;0.30;;;5.00;99.90;;;;;;4995439;28;20206;-71
2021/01/26 10:43:44;;;;;;;0.30;0.20;;;5.00;99.90;;;;;;4995571;28;20180;-69
2021/01/26 10:46:28;;;;;;;0.30;0.20;;;5.10;99.90;;;;;;4994947;28;20188;-71
2021/01/26 10:48:54;;;;;;;0.30;0.30;;;5.10;99.90;;;;;;4995014;28;20259;-71
2021/01/26 10:51:35;;;;;;;0.30;0.30;;;5.10;99.90;;;;;;4995300;28;20175;-71
2021/01/26 10:54:01;;;;;;;1.83;1.73;;;5.10;99.90;;;;;;4995362;28;20167;-71
2021/01/26 10:56:27;;;;;;;0.30;0.30;;;5.00;99.90;;;;;;4994478;28;20586;-70
2021/01/26 10:58:53;;;;;;;0.30;0.30;;;5.00;99.90;;;;;;4995186;28;20920;-70
2021/01/26 11:01:21;;;;;;;0.30;0.30;;;4.90;99.90;;;;;;4994549;28;20202;-70
2021/01/26 11:03:48;;;;;;;0.30;0.30;;;4.90;99.90;;;;;;4977443;28;20172;-69
2021/01/26 11:06:13;;;;;;;0.30;0.30;;;4.80;99.90;;;;;;4994337;28;20258;-68
2021/01/26 11:08:40;;;;;;;0.30;0.30;;;4.70;99.90;;;;;;4995174;28;20590;-69
2021/01/26 11:11:05;;;;;;;0.30;0.30;;;4.50;99.90;;;;;;4994845;28;20163;-70
2021/01/26 11:13:33;;;;;;;0.30;0.30;;;4.40;99.90;;;;;;4994888;28;20175;-70
2021/01/26 11:15:58;;;;;;;0.85;0.85;;;4.40;99.90;;;;;;4994264;28;20199;-70
2021/01/26 11:18:25;;;;;;;0.30;0.30;;;4.40;99.90;;;;;;4994435;28;20542;-69
2021/01/26 11:20:51;;;;;;;0.30;0.30;;;4.40;99.90;;;;;;4994868;28;20182;-69
2021/01/26 11:23:17;;;;;;;0.30;0.30;;;4.40;99.90;;;;;;4994672;28;20652;-70
2021/01/26 11:25:43;;;;;;;0.30;0.30;;;4.40;99.90;;;;;;4993839;28;20598;-69
2021/01/26 11:28:09;;;;;;;0.80;0.80;;;4.30;99.90;;;;;;4994509;28;20290;-69
2021/01/26 11:30:35;;;;;;;0.32;0.32;;;4.30;99.90;;;;;;4994485;28;20491;-71
2021/01/26 11:33:02;;;;;;;0.30;0.20;;;4.30;99.90;;;;;;4994479;28;20167;-69
2021/01/26 11:35:28;;;;;;;0.30;0.20;;;4.40;99.90;;;;;;4993897;28;20500;-70
2021/01/26 11:37:54;;;;;;;0.30;0.20;;;4.50;99.90;;;;;;4994739;28;20201;-69
2021/01/26 11:40:21;;;;;;;0.30;0.30;;;4.60;99.90;;;;;;4994559;28;20559;-68
2021/01/26 11:42:47;;;;;;;0.30;0.30;;;4.60;99.90;;;;;;4994505;28;20197;-70
2021/01/26 11:45:17;;;;;;;0.30;0.30;;;4.70;99.90;;;;;;4993646;28;20265;-68
2021/01/26 11:47:43;;;;;;;0.52;0.52;;;4.70;99.90;;;;;;4994168;28;20458;-67
2021/01/26 11:50:12;;;;;;;0.30;0.30;;;4.80;99.90;;;;;;4994235;28;20172;-70
2021/01/26 11:52:38;;;;;;;0.30;0.30;;;4.80;99.90;;;;;;4994197;28;20175;-67
2021/01/26 11:55:08;;;;;;;0.30;0.30;;;4.90;99.90;;;;;;4992933;28;20654;-68
2021/01/26 11:57:33;;;;;;;0.30;0.30;;;4.80;99.90;;;;;;4994131;28;20199;-69
2021/01/26 11:59:59;;;;;;;0.30;0.30;;;4.80;99.90;;;;;;4994016;28;20175;-67
2021/01/26 12:02:27;;;;;;;0.30;0.30;;;4.90;99.90;;;;;;4994009;28;20176;-68
2021/01/26 12:04:54;;;;;;;0.30;0.30;;;4.90;99.90;;;;;;4993273;28;20187;-68
2021/01/26 12:07:20;;;;;;;0.30;0.30;;;5.10;99.90;;;;;;4994051;28;20207;-68
2021/01/26 12:09:46;;;;;;;0.47;0.47;;;5.10;99.90;;;;;;4994019;28;20174;-69
2021/01/26 12:12:12;;;;;;;0.30;0.30;;;5.20;99.90;;;;;;4976741;28;20486;-69
2021/01/26 12:14:37;;;;;;;0.30;0.30;;;5.30;99.90;;;;;;4993656;28;20175;-68
2021/01/26 12:17:03;;;;;;;0.30;0.30;;;5.50;99.90;;;;;;4993400;28;20681;-69
2021/01/26 12:19:29;;;;;;;0.30;0.30;;;5.60;99.90;;;;;;4993864;28;20173;-68
2021/01/26 12:21:55;;;;;;;0.30;0.30;;;5.70;99.90;;;;;;4993666;28;20176;-70
2021/01/26 12:24:22;;;;;;;0.30;0.30;;;5.70;99.90;;;;;;4993831;28;20573;-69
2021/01/26 12:26:47;;;;;;;0.30;0.30;;;5.70;99.90;;;;;;4993346;28;20264;-70
2021/01/26 12:29:13;;;;;;;0.30;0.30;;;5.70;99.90;;;;;;4976408;28;20264;-69
2021/01/26 12:31:39;;;;;;;0.30;0.30;;;5.60;99.90;;;;;;4993541;28;20645;-69
2021/01/26 12:34:05;;;;;;;0.40;0.40;;;5.60;99.90;;;;;;4994007;28;20246;-69
2021/01/26 12:36:31;;;;;;;0.30;0.30;;;5.60;99.90;;;;;;4993289;28;20615;-69
2021/01/26 12:38:56;;;;;;;0.30;0.30;;;5.60;99.90;;;;;;4993789;28;20255;-68
2021/01/26 12:41:23;;;;;;;0.30;0.30;;;5.60;99.90;;;;;;4993703;28;20400;-68
2021/01/26 12:43:49;;;;;;;0.30;0.30;;;5.60;99.90;;;;;;4993305;28;20175;-67
2021/01/26 12:46:15;;;;;;;0.30;0.30;;;5.70;99.90;;;;;;4993235;28;20230;-68
2021/01/26 12:48:41;;;;;;;0.30;0.30;;;5.60;99.90;;;;;;4993270;28;20309;-68
2021/01/26 12:51:06;;;;;;;0.30;0.30;;;5.60;99.90;;;;;;4993286;28;20179;-69
2021/01/26 12:53:32;;;;;;;0.80;0.80;;;5.60;99.90;;;;;;4993669;28;20259;-68
2021/01/26 12:55:58;;;;;;;0.30;0.30;;;5.50;99.90;;;;;;4993235;28;20196;-68
2021/01/26 12:58:23;;;;;;;0.30;0.30;;;5.40;99.90;;;;;;4993603;28;20180;-68
2021/01/26 13:00:51;;;;;;;0.30;0.30;;;5.50;99.90;;;;;;4993200;28;20198;-68
2021/01/26 13:03:17;;;;;;;0.32;0.32;;;5.50;99.90;;;;;;4975993;28;20262;-68
2021/01/26 13:05:42;;;;;;;0.60;0.60;;;5.60;99.90;;;;;;4993006;28;20654;-69
2021/01/26 13:08:08;;;;;;;0.30;0.30;;;5.60;99.90;;;;;;4993432;28;20849;-69
2021/01/26 13:10:34;;;;;;;0.30;0.30;;;5.60;99.90;;;;;;4993069;28;20171;-70
2021/01/26 13:13:00;;;;;;;0.30;0.30;;;5.60;99.90;;;;;;4993475;28;20171;-69
2021/01/26 13:15:27;;;;;;;0.30;0.30;;;5.70;99.90;;;;;;4992762;28;20514;-68
2021/01/26 13:17:53;;;;;;;0.30;0.30;;;5.60;99.90;;;;;;4993166;28;20197;-70
2021/01/26 13:20:19;;;;;;;0.30;0.30;;;5.60;99.90;;;;;;4992966;28;20188;-69
2021/01/26 13:22:45;;;;;;;0.30;0.30;;;5.60;99.90;;;;;;4993343;28;20194;-70
2021/01/26 13:25:16;;;;;;;1.00;1.00;;;5.60;99.90;;;;;;4976674;28;20991;-69
2021/01/26 13:27:42;;;;;;;0.30;0.30;;;5.50;99.90;;;;;;4996619;28;20239;-69
2021/01/26 13:30:10;;;;;;;0.40;0.40;;;5.50;99.90;;;;;;4996973;28;20646;-71
2021/01/26 13:32:36;;;;;;;0.30;0.30;;;5.40;99.90;;;;;;4996838;28;20168;-68
2021/01/26 13:35:03;;;;;;;0.30;0.30;;;5.30;99.90;;;;;;4996386;28;20171;-68